sensor_id;sensor_type;location;lat;lon;timestamp;P1;durP1;ratioP1;P2;durP2;ratioP2
27428;SDS011;14881;48.092;11.574;2023-04-03T00:01:17;18.67;;;14.05;;
27428;SDS011;14881;48.092;11.574;2023-04-03T00:03:45;22.02;;;14.05;;
27428;SDS011;14881;48.092;11.574;2023-04-03T00:06:13;19.73;;;11.98;;
27428;SDS011;14881;48.092;11.574;2023-04-03T00:08:42;16.20;;;13.02;;
27428;SDS011;14881;48.092;11.574;2023-04-03T00:11:10;16.67;;;13.00;;
27428;SDS011;14881;48.092;11.574;2023-04-03T00:13:38;20.92;;;13.38;;
27428;SDS011;14881;48.092;11.574;2023-04-03T00:16:06;18.63;;;12.35;;
27428;SDS011;14881;48.092;11.574;2023-04-03T00:18:35;17.63;;;13.18;;
27428;SDS011;14881;48.092;11.574;2023-04-03T00:21:03;17.15;;;12.80;;
27428;SDS011;14881;48.092;11.574;2023-04-03T00:23:31;18.02;;;13.00;;
27428;SDS011;14881;48.092;11.574;2023-04-03T00:26:01;17.25;;;12.38;;
27428;SDS011;14881;48.092;11.574;2023-04-03T00:28:29;19.55;;;13.38;;
27428;SDS011;14881;48.092;11.574;2023-04-03T00:30:57;19.73;;;12.90;;
27428;SDS011;14881;48.092;11.574;2023-04-03T00:33:24;16.38;;;13.00;;
27428;SDS011;14881;48.092;11.574;2023-04-03T00:35:52;18.35;;;12.68;;
27428;SDS011;14881;48.092;11.574;2023-04-03T00:38:20;17.13;;;12.45;;
27428;SDS011;14881;48.092;11.574;2023-04-03T00:40:53;17.52;;;12.43;;
27428;SDS011;14881;48.092;11.574;2023-04-03T00:43:23;17.88;;;13.63;;
27428;SDS011;14881;48.092;11.574;2023-04-03T00:45:52;15.63;;;12.23;;
27428;SDS011;14881;48.092;11.574;2023-04-03T00:48:22;17.50;;;13.10;;
27428;SDS011;14881;48.092;11.574;2023-04-03T00:50:53;19.85;;;12.57;;
27428;SDS011;14881;48.092;11.574;2023-04-03T00:53:23;17.00;;;12.48;;
27428;SDS011;14881;48.092;11.574;2023-04-03T00:55:53;17.70;;;12.52;;
27428;SDS011;14881;48.092;11.574;2023-04-03T00:58:25;16.25;;;12.75;;
27428;SDS011;14881;48.092;11.574;2023-04-03T01:00:58;20.67;;;13.65;;
27428;SDS011;14881;48.092;11.574;2023-04-03T01:03:30;18.52;;;12.60;;
27428;SDS011;14881;48.092;11.574;2023-04-03T01:05:58;19.77;;;12.77;;
27428;SDS011;14881;48.092;11.574;2023-04-03T01:08:26;17.73;;;12.45;;
27428;SDS011;14881;48.092;11.574;2023-04-03T01:10:54;20.23;;;12.77;;
27428;SDS011;14881;48.092;11.574;2023-04-03T01:13:24;17.30;;;12.30;;
27428;SDS011;14881;48.092;11.574;2023-04-03T01:15:53;16.50;;;12.15;;
27428;SDS011;14881;48.092;11.574;2023-04-03T01:18:21;15.57;;;12.40;;
27428;SDS011;14881;48.092;11.574;2023-04-03T01:24:12;15.98;;;11.88;;
27428;SDS011;14881;48.092;11.574;2023-04-03T01:26:57;20.13;;;12.27;;
27428;SDS011;14881;48.092;11.574;2023-04-03T01:29:26;16.10;;;12.45;;
27428;SDS011;14881;48.092;11.574;2023-04-03T01:31:56;16.98;;;12.00;;
27428;SDS011;14881;48.092;11.574;2023-04-03T01:34:26;18.55;;;12.73;;
27428;SDS011;14881;48.092;11.574;2023-04-03T01:36:54;15.88;;;11.90;;
27428;SDS011;14881;48.092;11.574;2023-04-03T01:39:22;15.35;;;12.63;;
27428;SDS011;14881;48.092;11.574;2023-04-03T01:41:50;18.98;;;12.93;;
27428;SDS011;14881;48.092;11.574;2023-04-03T01:44:18;15.95;;;12.68;;
27428;SDS011;14881;48.092;11.574;2023-04-03T01:46:46;19.73;;;12.88;;
27428;SDS011;14881;48.092;11.574;2023-04-03T01:49:15;16.45;;;12.35;;
27428;SDS011;14881;48.092;11.574;2023-04-03T01:51:42;16.75;;;12.50;;
27428;SDS011;14881;48.092;11.574;2023-04-03T01:54:10;16.88;;;12.52;;
27428;SDS011;14881;48.092;11.574;2023-04-03T01:56:38;16.60;;;12.95;;
27428;SDS011;14881;48.092;11.574;2023-04-03T01:59:06;17.38;;;12.07;;
27428;SDS011;14881;48.092;11.574;2023-04-03T02:01:33;14.32;;;11.85;;
27428;SDS011;14881;48.092;11.574;2023-04-03T02:04:01;16.63;;;12.32;;
27428;SDS011;14881;48.092;11.574;2023-04-03T02:06:30;17.33;;;12.05;;
27428;SDS011;14881;48.092;11.574;2023-04-03T02:08:58;15.05;;;12.13;;
27428;SDS011;14881;48.092;11.574;2023-04-03T02:11:26;18.05;;;12.77;;
27428;SDS011;14881;48.092;11.574;2023-04-03T02:13:53;17.90;;;14.25;;
27428;SDS011;14881;48.092;11.574;2023-04-03T02:16:21;17.85;;;12.80;;
27428;SDS011;14881;48.092;11.574;2023-04-03T02:18:49;17.35;;;13.27;;
27428;SDS011;14881;48.092;11.574;2023-04-03T02:21:17;18.52;;;13.43;;
27428;SDS011;14881;48.092;11.574;2023-04-03T02:23:46;17.77;;;12.18;;
27428;SDS011;14881;48.092;11.574;2023-04-03T02:26:14;19.20;;;13.70;;
27428;SDS011;14881;48.092;11.574;2023-04-03T02:28:43;16.92;;;12.63;;
27428;SDS011;14881;48.092;11.574;2023-04-03T02:31:11;16.88;;;12.52;;
27428;SDS011;14881;48.092;11.574;2023-04-03T02:33:39;16.38;;;11.98;;
27428;SDS011;14881;48.092;11.574;2023-04-03T02:36:07;19.38;;;13.27;;
27428;SDS011;14881;48.092;11.574;2023-04-03T02:38:36;19.50;;;12.35;;
27428;SDS011;14881;48.092;11.574;2023-04-03T02:41:06;15.93;;;12.32;;
27428;SDS011;14881;48.092;11.574;2023-04-03T02:43:35;16.08;;;12.27;;
27428;SDS011;14881;48.092;11.574;2023-04-03T02:46:03;17.40;;;12.35;;
27428;SDS011;14881;48.092;11.574;2023-04-03T02:48:32;15.85;;;11.68;;
27428;SDS011;14881;48.092;11.574;2023-04-03T02:51:01;16.55;;;11.63;;
27428;SDS011;14881;48.092;11.574;2023-04-03T02:53:29;14.55;;;11.35;;
27428;SDS011;14881;48.092;11.574;2023-04-03T02:55:56;13.48;;;10.98;;
27428;SDS011;14881;48.092;11.574;2023-04-03T02:58:25;14.68;;;10.77;;
27428;SDS011;14881;48.092;11.574;2023-04-03T03:00:53;14.25;;;10.02;;
27428;SDS011;14881;48.092;11.574;2023-04-03T03:03:21;11.90;;;10.00;;
27428;SDS011;14881;48.092;11.574;2023-04-03T03:05:49;11.60;;;8.95;;
27428;SDS011;14881;48.092;11.574;2023-04-03T03:08:17;13.20;;;9.30;;
27428;SDS011;14881;48.092;11.574;2023-04-03T03:10:46;11.98;;;8.90;;
27428;SDS011;14881;48.092;11.574;2023-04-03T03:13:14;15.15;;;8.95;;
27428;SDS011;14881;48.092;11.574;2023-04-03T03:15:43;11.88;;;9.02;;
27428;SDS011;14881;48.092;11.574;2023-04-03T03:18:11;9.93;;;8.15;;
27428;SDS011;14881;48.092;11.574;2023-04-03T03:20:38;13.52;;;9.27;;
27428;SDS011;14881;48.092;11.574;2023-04-03T03:23:06;11.00;;;9.05;;
27428;SDS011;14881;48.092;11.574;2023-04-03T03:25:37;9.68;;;8.30;;
27428;SDS011;14881;48.092;11.574;2023-04-03T03:28:05;11.02;;;7.93;;
27428;SDS011;14881;48.092;11.574;2023-04-03T03:30:33;9.40;;;7.75;;
27428;SDS011;14881;48.092;11.574;2023-04-03T03:33:02;9.45;;;7.57;;
27428;SDS011;14881;48.092;11.574;2023-04-03T03:35:30;9.05;;;7.82;;
27428;SDS011;14881;48.092;11.574;2023-04-03T03:37:58;9.02;;;7.50;;
27428;SDS011;14881;48.092;11.574;2023-04-03T03:40:26;10.57;;;8.20;;
27428;SDS011;14881;48.092;11.574;2023-04-03T03:42:54;9.73;;;7.63;;
27428;SDS011;14881;48.092;11.574;2023-04-03T03:45:21;11.55;;;7.70;;
27428;SDS011;14881;48.092;11.574;2023-04-03T03:47:49;9.55;;;7.28;;
27428;SDS011;14881;48.092;11.574;2023-04-03T03:50:18;7.22;;;6.50;;
27428;SDS011;14881;48.092;11.574;2023-04-03T03:52:46;9.43;;;8.20;;
27428;SDS011;14881;48.092;11.574;2023-04-03T03:55:14;10.13;;;7.43;;
27428;SDS011;14881;48.092;11.574;2023-04-03T03:57:42;9.48;;;7.22;;
27428;SDS011;14881;48.092;11.574;2023-04-03T04:00:10;7.97;;;6.53;;
27428;SDS011;14881;48.092;11.574;2023-04-03T04:02:38;9.27;;;7.25;;
27428;SDS011;14881;48.092;11.574;2023-04-03T04:05:06;8.65;;;7.35;;
27428;SDS011;14881;48.092;11.574;2023-04-03T04:07:35;8.25;;;7.15;;
27428;SDS011;14881;48.092;11.574;2023-04-03T04:10:03;9.25;;;7.25;;
27428;SDS011;14881;48.092;11.574;2023-04-03T04:12:32;9.77;;;7.35;;
27428;SDS011;14881;48.092;11.574;2023-04-03T04:15:02;9.27;;;7.60;;
27428;SDS011;14881;48.092;11.574;2023-04-03T04:17:30;11.50;;;7.68;;
27428;SDS011;14881;48.092;11.574;2023-04-03T04:19:58;9.52;;;7.03;;
27428;SDS011;14881;48.092;11.574;2023-04-03T04:22:25;11.48;;;7.50;;
27428;SDS011;14881;48.092;11.574;2023-04-03T04:24:55;8.52;;;7.63;;
27428;SDS011;14881;48.092;11.574;2023-04-03T04:27:22;10.73;;;6.95;;
27428;SDS011;14881;48.092;11.574;2023-04-03T04:29:50;10.43;;;7.63;;
27428;SDS011;14881;48.092;11.574;2023-04-03T04:32:18;9.10;;;7.10;;
27428;SDS011;14881;48.092;11.574;2023-04-03T04:34:46;9.00;;;8.02;;
27428;SDS011;14881;48.092;11.574;2023-04-03T04:37:13;8.30;;;6.95;;
27428;SDS011;14881;48.092;11.574;2023-04-03T04:39:41;10.77;;;7.43;;
27428;SDS011;14881;48.092;11.574;2023-04-03T04:42:10;7.53;;;6.63;;
27428;SDS011;14881;48.092;11.574;2023-04-03T04:44:42;9.10;;;6.93;;
27428;SDS011;14881;48.092;11.574;2023-04-03T04:47:09;11.35;;;8.02;;
27428;SDS011;14881;48.092;11.574;2023-04-03T04:49:37;9.15;;;8.02;;
27428;SDS011;14881;48.092;11.574;2023-04-03T04:52:05;9.88;;;7.50;;
27428;SDS011;14881;48.092;11.574;2023-04-03T04:54:32;9.25;;;7.90;;
27428;SDS011;14881;48.092;11.574;2023-04-03T04:57:00;10.80;;;7.68;;
27428;SDS011;14881;48.092;11.574;2023-04-03T04:59:29;8.60;;;7.10;;
27428;SDS011;14881;48.092;11.574;2023-04-03T05:01:57;8.82;;;6.72;;
27428;SDS011;14881;48.092;11.574;2023-04-03T05:04:25;9.60;;;6.93;;
27428;SDS011;14881;48.092;11.574;2023-04-03T05:06:53;8.90;;;6.80;;
27428;SDS011;14881;48.092;11.574;2023-04-03T05:09:20;10.40;;;7.53;;
27428;SDS011;14881;48.092;11.574;2023-04-03T05:11:48;7.80;;;6.65;;
27428;SDS011;14881;48.092;11.574;2023-04-03T05:14:16;8.95;;;7.15;;
27428;SDS011;14881;48.092;11.574;2023-04-03T05:16:45;11.52;;;8.23;;
27428;SDS011;14881;48.092;11.574;2023-04-03T05:19:16;9.55;;;7.60;;
27428;SDS011;14881;48.092;11.574;2023-04-03T05:21:44;8.82;;;6.97;;
27428;SDS011;14881;48.092;11.574;2023-04-03T05:24:12;11.05;;;7.32;;
27428;SDS011;14881;48.092;11.574;2023-04-03T05:26:41;7.90;;;6.68;;
27428;SDS011;14881;48.092;11.574;2023-04-03T05:29:09;8.73;;;6.95;;
27428;SDS011;14881;48.092;11.574;2023-04-03T05:31:37;10.55;;;6.82;;
27428;SDS011;14881;48.092;11.574;2023-04-03T05:34:06;7.35;;;6.57;;
27428;SDS011;14881;48.092;11.574;2023-04-03T05:36:34;7.55;;;6.63;;
27428;SDS011;14881;48.092;11.574;2023-04-03T05:39:02;8.23;;;7.28;;
27428;SDS011;14881;48.092;11.574;2023-04-03T05:41:30;9.73;;;7.65;;
27428;SDS011;14881;48.092;11.574;2023-04-03T05:43:58;8.68;;;7.38;;
27428;SDS011;14881;48.092;11.574;2023-04-03T05:46:25;7.70;;;6.20;;
27428;SDS011;14881;48.092;11.574;2023-04-03T05:48:53;10.02;;;7.20;;
27428;SDS011;14881;48.092;11.574;2023-04-03T05:51:24;10.07;;;6.68;;
27428;SDS011;14881;48.092;11.574;2023-04-03T05:53:56;9.02;;;6.97;;
27428;SDS011;14881;48.092;11.574;2023-04-03T05:56:28;7.43;;;6.63;;
27428;SDS011;14881;48.092;11.574;2023-04-03T05:58:56;9.32;;;6.38;;
27428;SDS011;14881;48.092;11.574;2023-04-03T06:01:24;11.63;;;7.05;;
27428;SDS011;14881;48.092;11.574;2023-04-03T06:03:52;7.57;;;6.70;;
27428;SDS011;14881;48.092;11.574;2023-04-03T06:06:24;9.88;;;7.03;;
27428;SDS011;14881;48.092;11.574;2023-04-03T06:08:52;9.07;;;6.70;;
27428;SDS011;14881;48.092;11.574;2023-04-03T06:11:19;9.25;;;6.65;;
27428;SDS011;14881;48.092;11.574;2023-04-03T06:13:48;7.50;;;6.57;;
27428;SDS011;14881;48.092;11.574;2023-04-03T06:16:16;10.00;;;7.05;;
27428;SDS011;14881;48.092;11.574;2023-04-03T06:18:45;8.95;;;6.30;;
27428;SDS011;14881;48.092;11.574;2023-04-03T06:21:13;8.55;;;6.53;;
27428;SDS011;14881;48.092;11.574;2023-04-03T06:23:42;8.48;;;7.03;;
27428;SDS011;14881;48.092;11.574;2023-04-03T06:26:10;10.05;;;7.03;;
27428;SDS011;14881;48.092;11.574;2023-04-03T06:28:38;9.75;;;6.10;;
27428;SDS011;14881;48.092;11.574;2023-04-03T06:31:06;9.02;;;6.45;;
27428;SDS011;14881;48.092;11.574;2023-04-03T06:33:33;10.65;;;6.40;;
27428;SDS011;14881;48.092;11.574;2023-04-03T06:36:03;9.60;;;7.07;;
27428;SDS011;14881;48.092;11.574;2023-04-03T06:38:33;8.80;;;6.55;;
27428;SDS011;14881;48.092;11.574;2023-04-03T06:41:02;9.30;;;7.25;;
27428;SDS011;14881;48.092;11.574;2023-04-03T06:43:30;10.63;;;6.30;;
27428;SDS011;14881;48.092;11.574;2023-04-03T06:46:00;8.27;;;6.10;;
27428;SDS011;14881;48.092;11.574;2023-04-03T06:48:28;10.13;;;6.82;;
27428;SDS011;14881;48.092;11.574;2023-04-03T06:50:56;8.70;;;6.18;;
27428;SDS011;14881;48.092;11.574;2023-04-03T06:53:23;7.13;;;5.63;;
27428;SDS011;14881;48.092;11.574;2023-04-03T06:55:51;10.25;;;6.60;;
27428;SDS011;14881;48.092;11.574;2023-04-03T06:58:20;9.75;;;7.18;;
27428;SDS011;14881;48.092;11.574;2023-04-03T07:00:48;10.10;;;6.25;;
27428;SDS011;14881;48.092;11.574;2023-04-03T07:03:16;7.90;;;6.45;;
27428;SDS011;14881;48.092;11.574;2023-04-03T07:05:44;8.95;;;6.53;;
27428;SDS011;14881;48.092;11.574;2023-04-03T07:08:12;14.15;;;9.27;;
27428;SDS011;14881;48.092;11.574;2023-04-03T07:10:40;9.25;;;6.93;;
27428;SDS011;14881;48.092;11.574;2023-04-03T07:13:09;9.85;;;6.85;;
27428;SDS011;14881;48.092;11.574;2023-04-03T07:15:38;9.77;;;7.90;;
27428;SDS011;14881;48.092;11.574;2023-04-03T07:18:06;9.25;;;7.32;;
27428;SDS011;14881;48.092;11.574;2023-04-03T07:20:34;7.57;;;6.43;;
27428;SDS011;14881;48.092;11.574;2023-04-03T07:23:02;8.00;;;6.53;;
27428;SDS011;14881;48.092;11.574;2023-04-03T07:25:31;7.13;;;6.22;;
27428;SDS011;14881;48.092;11.574;2023-04-03T07:28:00;8.88;;;6.47;;
27428;SDS011;14881;48.092;11.574;2023-04-03T07:30:36;8.07;;;5.93;;
27428;SDS011;14881;48.092;11.574;2023-04-03T07:33:11;7.03;;;6.32;;
27428;SDS011;14881;48.092;11.574;2023-04-03T07:35:40;7.60;;;5.72;;
27428;SDS011;14881;48.092;11.574;2023-04-03T07:38:09;7.55;;;6.03;;
27428;SDS011;14881;48.092;11.574;2023-04-03T07:40:37;7.60;;;6.22;;
27428;SDS011;14881;48.092;11.574;2023-04-03T07:43:06;7.30;;;5.93;;
27428;SDS011;14881;48.092;11.574;2023-04-03T07:45:34;7.15;;;5.88;;
27428;SDS011;14881;48.092;11.574;2023-04-03T07:48:04;8.68;;;6.22;;
27428;SDS011;14881;48.092;11.574;2023-04-03T07:50:33;9.95;;;6.53;;
27428;SDS011;14881;48.092;11.574;2023-04-03T07:53:02;7.65;;;6.53;;
27428;SDS011;14881;48.092;11.574;2023-04-03T07:55:31;8.20;;;6.22;;
27428;SDS011;14881;48.092;11.574;2023-04-03T07:58:00;8.82;;;6.75;;
27428;SDS011;14881;48.092;11.574;2023-04-03T08:00:28;8.88;;;6.22;;
27428;SDS011;14881;48.092;11.574;2023-04-03T08:02:56;10.85;;;6.85;;
27428;SDS011;14881;48.092;11.574;2023-04-03T08:05:25;7.68;;;6.85;;
27428;SDS011;14881;48.092;11.574;2023-04-03T08:07:53;9.23;;;6.95;;
27428;SDS011;14881;48.092;11.574;2023-04-03T08:10:21;10.82;;;7.32;;
27428;SDS011;14881;48.092;11.574;2023-04-03T08:12:49;9.68;;;7.20;;
27428;SDS011;14881;48.092;11.574;2023-04-03T08:15:17;10.20;;;7.88;;
27428;SDS011;14881;48.092;11.574;2023-04-03T08:17:45;14.00;;;7.13;;
27428;SDS011;14881;48.092;11.574;2023-04-03T08:20:13;12.18;;;7.47;;
27428;SDS011;14881;48.092;11.574;2023-04-03T08:22:42;10.93;;;7.57;;
27428;SDS011;14881;48.092;11.574;2023-04-03T08:25:10;12.50;;;8.00;;
27428;SDS011;14881;48.092;11.574;2023-04-03T08:27:38;10.20;;;7.82;;
27428;SDS011;14881;48.092;11.574;2023-04-03T08:30:06;13.10;;;8.65;;
27428;SDS011;14881;48.092;11.574;2023-04-03T08:32:35;11.27;;;7.88;;
27428;SDS011;14881;48.092;11.574;2023-04-03T08:35:03;12.43;;;7.85;;
27428;SDS011;14881;48.092;11.574;2023-04-03T08:37:31;9.32;;;7.20;;
27428;SDS011;14881;48.092;11.574;2023-04-03T08:40:04;10.50;;;7.85;;
27428;SDS011;14881;48.092;11.574;2023-04-03T08:42:37;8.48;;;7.10;;
27428;SDS011;14881;48.092;11.574;2023-04-03T08:45:13;7.68;;;6.25;;
27428;SDS011;14881;48.092;11.574;2023-04-03T08:47:47;8.93;;;6.55;;
27428;SDS011;14881;48.092;11.574;2023-04-03T08:50:23;8.68;;;6.50;;
27428;SDS011;14881;48.092;11.574;2023-04-03T08:52:56;10.10;;;7.22;;
27428;SDS011;14881;48.092;11.574;2023-04-03T08:55:28;7.45;;;6.60;;
27428;SDS011;14881;48.092;11.574;2023-04-03T08:57:59;8.50;;;6.60;;
27428;SDS011;14881;48.092;11.574;2023-04-03T09:00:30;10.77;;;7.15;;
27428;SDS011;14881;48.092;11.574;2023-04-03T09:03:03;9.82;;;7.25;;
27428;SDS011;14881;48.092;11.574;2023-04-03T09:05:34;14.77;;;7.63;;
27428;SDS011;14881;48.092;11.574;2023-04-03T09:08:12;10.57;;;7.28;;
27428;SDS011;14881;48.092;11.574;2023-04-03T09:10:50;8.48;;;6.90;;
27428;SDS011;14881;48.092;11.574;2023-04-03T09:13:28;10.60;;;6.78;;
27428;SDS011;14881;48.092;11.574;2023-04-03T09:16:03;11.07;;;6.78;;
27428;SDS011;14881;48.092;11.574;2023-04-03T09:18:41;8.35;;;6.25;;
27428;SDS011;14881;48.092;11.574;2023-04-03T09:21:17;6.80;;;6.15;;
27428;SDS011;14881;48.092;11.574;2023-04-03T09:23:51;12.32;;;6.85;;
27428;SDS011;14881;48.092;11.574;2023-04-03T09:26:23;11.85;;;7.20;;
27428;SDS011;14881;48.092;11.574;2023-04-03T09:28:53;8.50;;;6.95;;
27428;SDS011;14881;48.092;11.574;2023-04-03T09:31:23;9.18;;;6.88;;
27428;SDS011;14881;48.092;11.574;2023-04-03T09:33:54;9.57;;;6.45;;
27428;SDS011;14881;48.092;11.574;2023-04-03T09:36:40;9.82;;;7.43;;
27428;SDS011;14881;48.092;11.574;2023-04-03T09:39:10;8.10;;;7.28;;
27428;SDS011;14881;48.092;11.574;2023-04-03T09:41:42;9.23;;;6.82;;
27428;SDS011;14881;48.092;11.574;2023-04-03T09:44:23;8.57;;;6.25;;
27428;SDS011;14881;48.092;11.574;2023-04-03T09:46:51;8.25;;;5.80;;
27428;SDS011;14881;48.092;11.574;2023-04-03T09:49:19;9.73;;;5.70;;
27428;SDS011;14881;48.092;11.574;2023-04-03T09:51:47;7.20;;;6.30;;
27428;SDS011;14881;48.092;11.574;2023-04-03T09:54:32;8.80;;;6.10;;
27428;SDS011;14881;48.092;11.574;2023-04-03T09:57:06;8.43;;;6.38;;
27428;SDS011;14881;48.092;11.574;2023-04-03T09:59:41;7.75;;;6.30;;
27428;SDS011;14881;48.092;11.574;2023-04-03T10:02:22;11.63;;;6.95;;
27428;SDS011;14881;48.092;11.574;2023-04-03T10:04:57;7.53;;;6.03;;
27428;SDS011;14881;48.092;11.574;2023-04-03T10:07:35;8.30;;;7.15;;
27428;SDS011;14881;48.092;11.574;2023-04-03T10:10:17;6.90;;;6.07;;
27428;SDS011;14881;48.092;11.574;2023-04-03T10:12:48;7.13;;;6.47;;
27428;SDS011;14881;48.092;11.574;2023-04-03T10:15:16;7.50;;;6.60;;
27428;SDS011;14881;48.092;11.574;2023-04-03T10:17:50;8.43;;;6.20;;
27428;SDS011;14881;48.092;11.574;2023-04-03T10:20:28;9.65;;;6.40;;
27428;SDS011;14881;48.092;11.574;2023-04-03T10:23:13;7.40;;;6.57;;
27428;SDS011;14881;48.092;11.574;2023-04-03T10:25:48;8.77;;;6.25;;
27428;SDS011;14881;48.092;11.574;2023-04-03T10:28:30;7.68;;;6.22;;
27428;SDS011;14881;48.092;11.574;2023-04-03T10:31:02;8.27;;;6.22;;
27428;SDS011;14881;48.092;11.574;2023-04-03T10:33:39;7.15;;;6.13;;
27428;SDS011;14881;48.092;11.574;2023-04-03T10:36:24;8.98;;;6.97;;
27428;SDS011;14881;48.092;11.574;2023-04-03T10:39:02;10.05;;;7.80;;
27428;SDS011;14881;48.092;11.574;2023-04-03T10:41:39;10.57;;;8.13;;
27428;SDS011;14881;48.092;11.574;2023-04-03T10:44:27;9.20;;;7.13;;
27428;SDS011;14881;48.092;11.574;2023-04-03T10:47:04;11.57;;;7.30;;
27428;SDS011;14881;48.092;11.574;2023-04-03T10:49:42;8.18;;;7.20;;
27428;SDS011;14881;48.092;11.574;2023-04-03T10:55:00;11.55;;;6.38;;
27428;SDS011;14881;48.092;11.574;2023-04-03T10:57:34;10.77;;;6.65;;
27428;SDS011;14881;48.092;11.574;2023-04-03T11:00:04;8.48;;;5.90;;
27428;SDS011;14881;48.092;11.574;2023-04-03T11:02:36;8.63;;;5.57;;
27428;SDS011;14881;48.092;11.574;2023-04-03T11:05:18;7.38;;;6.03;;
27428;SDS011;14881;48.092;11.574;2023-04-03T11:07:53;6.63;;;5.60;;
27428;SDS011;14881;48.092;11.574;2023-04-03T11:10:25;7.45;;;5.75;;
27428;SDS011;14881;48.092;11.574;2023-04-03T11:13:06;8.02;;;6.22;;
27428;SDS011;14881;48.092;11.574;2023-04-03T11:15:41;8.63;;;6.72;;
27428;SDS011;14881;48.092;11.574;2023-04-03T11:18:11;7.35;;;6.00;;
27428;SDS011;14881;48.092;11.574;2023-04-03T11:20:44;7.30;;;6.15;;
27428;SDS011;14881;48.092;11.574;2023-04-03T11:23:19;7.30;;;5.83;;
27428;SDS011;14881;48.092;11.574;2023-04-03T11:25:56;7.82;;;6.10;;
27428;SDS011;14881;48.092;11.574;2023-04-03T11:28:32;7.97;;;5.75;;
27428;SDS011;14881;48.092;11.574;2023-04-03T11:31:02;7.68;;;5.85;;
27428;SDS011;14881;48.092;11.574;2023-04-03T11:33:42;9.07;;;5.32;;
27428;SDS011;14881;48.092;11.574;2023-04-03T11:36:19;7.22;;;5.38;;
27428;SDS011;14881;48.092;11.574;2023-04-03T11:38:54;6.03;;;5.30;;
27428;SDS011;14881;48.092;11.574;2023-04-03T11:41:26;7.40;;;5.30;;
27428;SDS011;14881;48.092;11.574;2023-04-03T11:43:58;6.53;;;4.95;;
27428;SDS011;14881;48.092;11.574;2023-04-03T11:58:22;7.85;;;4.45;;
27428;SDS011;14881;48.092;11.574;2023-04-03T12:00:52;9.15;;;4.30;;
27428;SDS011;14881;48.092;11.574;2023-04-03T12:12:57;5.95;;;3.97;;
27428;SDS011;14881;48.092;11.574;2023-04-03T12:15:38;9.07;;;3.95;;
27428;SDS011;14881;48.092;11.574;2023-04-03T12:21:20;5.45;;;3.70;;
27428;SDS011;14881;48.092;11.574;2023-04-03T12:23:59;6.38;;;3.70;;
27428;SDS011;14881;48.092;11.574;2023-04-03T12:27:07;5.03;;;3.88;;
27428;SDS011;14881;48.092;11.574;2023-04-03T12:29:46;5.40;;;3.53;;
27428;SDS011;14881;48.092;11.574;2023-04-03T12:32:24;8.20;;;4.10;;
27428;SDS011;14881;48.092;11.574;2023-04-03T12:35:09;4.85;;;3.45;;
27428;SDS011;14881;48.092;11.574;2023-04-03T12:37:48;5.90;;;3.05;;
27428;SDS011;14881;48.092;11.574;2023-04-03T12:40:28;4.32;;;3.75;;
27428;SDS011;14881;48.092;11.574;2023-04-03T12:43:06;6.63;;;3.67;;
27428;SDS011;14881;48.092;11.574;2023-04-03T12:45:44;4.38;;;3.28;;
27428;SDS011;14881;48.092;11.574;2023-04-03T12:48:15;5.20;;;3.40;;
27428;SDS011;14881;48.092;11.574;2023-04-03T12:50:45;4.07;;;3.53;;
27428;SDS011;14881;48.092;11.574;2023-04-03T12:53:16;6.13;;;3.30;;
27428;SDS011;14881;48.092;11.574;2023-04-03T12:55:46;5.18;;;3.38;;
27428;SDS011;14881;48.092;11.574;2023-04-03T12:58:15;5.78;;;3.50;;
27428;SDS011;14881;48.092;11.574;2023-04-03T13:00:58;5.07;;;2.95;;
27428;SDS011;14881;48.092;11.574;2023-04-03T13:03:27;4.68;;;3.55;;
27428;SDS011;14881;48.092;11.574;2023-04-03T13:05:56;4.60;;;2.92;;
27428;SDS011;14881;48.092;11.574;2023-04-03T13:08:28;3.35;;;3.05;;
27428;SDS011;14881;48.092;11.574;2023-04-03T13:10:58;3.90;;;3.05;;
27428;SDS011;14881;48.092;11.574;2023-04-03T13:13:29;4.47;;;3.17;;
27428;SDS011;14881;48.092;11.574;2023-04-03T13:15:57;4.82;;;3.17;;
27428;SDS011;14881;48.092;11.574;2023-04-03T13:18:27;3.88;;;2.90;;
27428;SDS011;14881;48.092;11.574;2023-04-03T13:20:58;5.43;;;3.90;;
27428;SDS011;14881;48.092;11.574;2023-04-03T13:23:32;6.22;;;3.35;;
27428;SDS011;14881;48.092;11.574;2023-04-03T13:26:03;4.30;;;2.90;;
27428;SDS011;14881;48.092;11.574;2023-04-03T13:28:33;4.45;;;2.80;;
27428;SDS011;14881;48.092;11.574;2023-04-03T13:31:04;4.13;;;3.25;;
27428;SDS011;14881;48.092;11.574;2023-04-03T13:33:36;3.30;;;3.00;;
27428;SDS011;14881;48.092;11.574;2023-04-03T13:36:06;4.70;;;3.20;;
27428;SDS011;14881;48.092;11.574;2023-04-03T13:38:39;3.47;;;2.97;;
27428;SDS011;14881;48.092;11.574;2023-04-03T13:41:21;3.75;;;3.10;;
27428;SDS011;14881;48.092;11.574;2023-04-03T13:43:51;4.28;;;3.33;;
27428;SDS011;14881;48.092;11.574;2023-04-03T13:46:35;4.60;;;3.00;;
27428;SDS011;14881;48.092;11.574;2023-04-03T13:49:09;4.40;;;2.63;;
27428;SDS011;14881;48.092;11.574;2023-04-03T13:51:46;6.15;;;3.42;;
27428;SDS011;14881;48.092;11.574;2023-04-03T13:54:31;4.95;;;2.72;;
27428;SDS011;14881;48.092;11.574;2023-04-03T13:57:01;4.75;;;2.88;;
27428;SDS011;14881;48.092;11.574;2023-04-03T13:59:31;4.88;;;3.15;;
27428;SDS011;14881;48.092;11.574;2023-04-03T14:02:17;4.90;;;3.28;;
27428;SDS011;14881;48.092;11.574;2023-04-03T14:04:53;5.00;;;2.75;;
27428;SDS011;14881;48.092;11.574;2023-04-03T14:07:27;4.35;;;2.72;;
27428;SDS011;14881;48.092;11.574;2023-04-03T14:09:58;3.67;;;3.10;;
27428;SDS011;14881;48.092;11.574;2023-04-03T14:12:27;3.85;;;2.85;;
27428;SDS011;14881;48.092;11.574;2023-04-03T14:14:57;4.55;;;3.25;;
27428;SDS011;14881;48.092;11.574;2023-04-03T14:17:27;3.78;;;3.00;;
27428;SDS011;14881;48.092;11.574;2023-04-03T14:19:57;3.10;;;2.80;;
27428;SDS011;14881;48.092;11.574;2023-04-03T14:22:28;4.63;;;2.75;;
27428;SDS011;14881;48.092;11.574;2023-04-03T14:24:59;3.38;;;2.72;;
27428;SDS011;14881;48.092;11.574;2023-04-03T14:27:28;4.32;;;2.67;;
27428;SDS011;14881;48.092;11.574;2023-04-03T14:29:58;7.55;;;3.03;;
27428;SDS011;14881;48.092;11.574;2023-04-03T14:32:26;4.95;;;2.70;;
27428;SDS011;14881;48.092;11.574;2023-04-03T14:34:55;3.40;;;2.78;;
27428;SDS011;14881;48.092;11.574;2023-04-03T14:37:25;2.88;;;2.60;;
27428;SDS011;14881;48.092;11.574;2023-04-03T14:39:55;4.47;;;2.88;;
27428;SDS011;14881;48.092;11.574;2023-04-03T14:42:26;3.10;;;2.50;;
27428;SDS011;14881;48.092;11.574;2023-04-03T14:44:57;3.30;;;2.63;;
27428;SDS011;14881;48.092;11.574;2023-04-03T14:47:25;4.88;;;2.35;;
27428;SDS011;14881;48.092;11.574;2023-04-03T14:49:57;4.45;;;2.85;;
27428;SDS011;14881;48.092;11.574;2023-04-03T14:52:27;4.30;;;2.90;;
27428;SDS011;14881;48.092;11.574;2023-04-03T14:54:56;4.15;;;2.70;;
27428;SDS011;14881;48.092;11.574;2023-04-03T14:57:27;6.90;;;3.20;;
27428;SDS011;14881;48.092;11.574;2023-04-03T14:59:56;3.28;;;2.53;;
27428;SDS011;14881;48.092;11.574;2023-04-03T15:02:26;3.30;;;2.65;;
27428;SDS011;14881;48.092;11.574;2023-04-03T15:04:56;3.10;;;2.58;;
27428;SDS011;14881;48.092;11.574;2023-04-03T15:07:25;4.90;;;2.63;;
27428;SDS011;14881;48.092;11.574;2023-04-03T15:09:55;3.28;;;2.33;;
27428;SDS011;14881;48.092;11.574;2023-04-03T15:12:24;3.85;;;2.78;;
27428;SDS011;14881;48.092;11.574;2023-04-03T15:14:54;5.00;;;2.88;;
27428;SDS011;14881;48.092;11.574;2023-04-03T15:17:28;3.97;;;2.40;;